createdAt,value
2017-11-20T00:01:54.446Z,5.10
2017-11-20T00:04:21.906Z,5.10
2017-11-20T00:06:48.346Z,5.10
2017-11-20T00:09:14.765Z,5.10
2017-11-20T00:11:41.937Z,5.10
2017-11-20T00:14:08.343Z,5.10
2017-11-20T00:16:35.462Z,5.10
2017-11-20T00:19:01.846Z,5.00
2017-11-20T00:21:28.336Z,5.00
2017-11-20T00:23:54.785Z,5.00
2017-11-20T00:26:21.211Z,5.00
2017-11-20T00:28:48.713Z,5.00
2017-11-20T00:31:15.210Z,5.00
2017-11-20T00:33:42.397Z,4.90
2017-11-20T00:36:09.570Z,4.90
2017-11-20T00:38:35.965Z,4.90
2017-11-20T00:41:02.416Z,4.90
2017-11-20T00:43:29.566Z,4.70
2017-11-20T00:45:55.971Z,4.70
2017-11-20T00:48:22.459Z,4.70
2017-11-20T00:50:48.830Z,4.60
2017-11-20T00:53:16.306Z,4.60
2017-11-20T00:55:43.442Z,4.50
2017-11-20T00:58:09.826Z,4.50
2017-11-20T01:00:36.259Z,4.50
2017-11-20T01:03:03.365Z,4.40
2017-11-20T01:05:29.759Z,4.40
2017-11-20T01:07:56.155Z,4.40
2017-11-20T01:10:22.571Z,4.40
2017-11-20T01:12:52.389Z,4.30
2017-11-20T01:15:19.034Z,4.30
2017-11-20T01:17:45.442Z,4.40
2017-11-20T01:20:12.191Z,4.40
2017-11-20T01:22:39.378Z,4.30
2017-11-20T01:25:06.517Z,4.40
2017-11-20T01:27:32.954Z,4.40
2017-11-20T01:30:00.149Z,4.40
2017-11-20T01:32:27.317Z,4.40
2017-11-20T01:34:53.802Z,4.40
2017-11-20T01:37:20.253Z,4.50
2017-11-20T01:39:46.709Z,4.50
2017-11-20T01:42:13.130Z,4.40
2017-11-20T01:44:39.700Z,4.40
2017-11-20T01:47:06.857Z,4.50
2017-11-20T01:49:33.290Z,4.50
2017-11-20T01:51:59.710Z,4.50
2017-11-20T01:54:26.134Z,4.50
2017-11-20T01:56:53.292Z,4.50
2017-11-20T01:59:19.781Z,4.50
2017-11-20T02:01:46.262Z,4.50
2017-11-20T02:04:12.702Z,4.50
2017-11-20T02:06:39.109Z,4.50
2017-11-20T02:09:05.453Z,4.50
2017-11-20T02:11:31.853Z,4.50
2017-11-20T02:13:58.265Z,4.50
2017-11-20T02:16:24.661Z,4.50
2017-11-20T02:18:51.845Z,4.50
2017-11-20T02:21:18.264Z,4.50
2017-11-20T02:23:44.701Z,4.40
2017-11-20T02:26:11.161Z,4.40
2017-11-20T02:28:37.624Z,4.40
2017-11-20T02:31:04.039Z,4.40
2017-11-20T02:33:30.483Z,4.50
2017-11-20T02:35:56.897Z,4.40
2017-11-20T02:38:23.362Z,4.40
2017-11-20T02:40:49.786Z,4.40
2017-11-20T02:43:17.031Z,4.40
2017-11-20T02:45:43.473Z,4.40
2017-11-20T02:48:09.891Z,4.40
2017-11-20T02:50:36.370Z,4.30
2017-11-20T02:53:02.766Z,4.40
2017-11-20T02:55:29.184Z,4.40
2017-11-20T02:57:55.661Z,4.50
2017-11-20T03:00:22.857Z,4.50
2017-11-20T03:02:49.255Z,4.50
2017-11-20T03:05:15.662Z,4.60
2017-11-20T03:07:42.066Z,4.60
2017-11-20T03:10:08.514Z,4.50
2017-11-20T03:12:34.935Z,4.60
2017-11-20T03:15:02.117Z,4.60
2017-11-20T03:17:28.481Z,4.60
2017-11-20T03:19:55.726Z,4.60
2017-11-20T03:22:22.125Z,4.60
2017-11-20T03:24:48.533Z,4.60
2017-11-20T03:27:14.973Z,4.60
2017-11-20T03:29:41.385Z,4.60
2017-11-20T03:32:07.829Z,4.60
2017-11-20T03:34:34.282Z,4.60
2017-11-20T03:37:00.722Z,4.60
2017-11-20T03:39:27.870Z,4.70
2017-11-20T03:41:55.070Z,4.70
2017-11-20T03:44:21.503Z,4.60
2017-11-20T03:46:47.924Z,4.60
2017-11-20T03:49:14.361Z,4.70
2017-11-20T03:51:41.545Z,4.70
2017-11-20T03:54:08.966Z,4.60
2017-11-20T03:56:35.419Z,4.60
2017-11-20T03:59:01.816Z,4.70
2017-11-20T04:01:28.202Z,4.70
2017-11-20T04:03:54.569Z,4.70
2017-11-20T04:06:21.022Z,4.70
2017-11-20T04:08:48.136Z,4.70
2017-11-20T04:11:14.552Z,4.60
2017-11-20T04:13:40.971Z,4.60
2017-11-20T04:16:08.057Z,4.60
2017-11-20T04:18:34.453Z,4.60
2017-11-20T04:21:00.871Z,4.60
2017-11-20T04:23:27.290Z,4.60
2017-11-20T04:25:53.744Z,4.60
2017-11-20T04:28:20.135Z,4.50
2017-11-20T04:30:46.529Z,4.50
2017-11-20T04:33:14.049Z,4.50
2017-11-20T04:35:40.529Z,4.50
2017-11-20T04:38:07.029Z,4.50
2017-11-20T04:40:34.226Z,4.50
2017-11-20T04:43:01.406Z,4.50
2017-11-20T04:45:27.802Z,4.40
2017-11-20T04:47:55.022Z,4.40
2017-11-20T04:50:21.403Z,4.50
2017-11-20T04:52:47.818Z,4.40
2017-11-20T04:55:14.257Z,4.40
2017-11-20T04:57:40.675Z,4.40
2017-11-20T05:00:07.845Z,4.40
2017-11-20T05:02:34.286Z,4.30
2017-11-20T05:05:00.663Z,4.40
2017-11-20T05:07:27.063Z,4.40
2017-11-20T05:09:53.504Z,4.40
2017-11-20T05:12:19.960Z,4.40
2017-11-20T05:14:47.084Z,4.40
2017-11-20T05:17:14.257Z,4.40
2017-11-20T05:19:40.645Z,4.40
2017-11-20T05:22:07.058Z,4.40
2017-11-20T05:24:33.481Z,4.40
2017-11-20T05:26:59.874Z,4.40
2017-11-20T05:29:26.269Z,4.40
2017-11-20T05:31:53.443Z,4.40
2017-11-20T05:34:19.848Z,4.40
2017-11-20T05:36:46.321Z,4.40
2017-11-20T05:39:13.533Z,4.30
2017-11-20T05:41:39.917Z,4.30
2017-11-20T05:44:06.374Z,4.40
2017-11-20T05:46:32.797Z,4.40
2017-11-20T05:48:59.193Z,4.30
2017-11-20T05:51:26.362Z,4.40
2017-11-20T05:53:52.758Z,4.30
2017-11-20T05:56:19.165Z,4.30
2017-11-20T05:58:45.543Z,4.30
2017-11-20T06:01:12.719Z,4.30
2017-11-20T06:03:40.121Z,4.30
2017-11-20T06:06:07.282Z,4.30
2017-11-20T06:08:33.709Z,4.30
2017-11-20T06:11:00.841Z,4.30
2017-11-20T06:13:27.250Z,4.30
2017-11-20T06:15:53.661Z,4.20
2017-11-20T06:18:20.817Z,4.20
2017-11-20T06:20:47.213Z,4.20
2017-11-20T06:23:13.621Z,4.20
2017-11-20T06:25:40.729Z,4.20
2017-11-20T06:28:07.113Z,4.20
2017-11-20T06:30:34.263Z,4.20
2017-11-20T06:33:00.645Z,4.20
2017-11-20T06:35:27.053Z,4.20
2017-11-20T06:37:54.214Z,4.20
2017-11-20T06:40:20.582Z,4.20
2017-11-20T06:42:47.741Z,4.20
2017-11-20T06:45:14.133Z,4.10
2017-11-20T06:47:40.530Z,4.20
2017-11-20T06:50:07.714Z,4.20
2017-11-20T06:52:34.106Z,4.20
2017-11-20T06:55:00.519Z,4.10
2017-11-20T06:57:26.905Z,4.10
2017-11-20T06:59:54.095Z,4.10
2017-11-20T07:02:20.445Z,4.10
2017-11-20T07:04:46.841Z,4.10
2017-11-20T07:07:14.002Z,4.10
2017-11-20T07:09:40.398Z,4.10
2017-11-20T07:12:06.781Z,4.10
2017-11-20T07:14:33.974Z,4.10
2017-11-20T07:17:02.289Z,4.00
2017-11-20T07:19:29.324Z,4.00
2017-11-20T07:21:55.640Z,4.00
2017-11-20T07:24:21.908Z,4.00
2017-11-20T07:26:59.276Z,3.90
2017-11-20T07:29:40.950Z,4.00
2017-11-20T07:32:07.256Z,4.00
2017-11-20T07:34:46.557Z,4.20
2017-11-20T07:37:25.016Z,4.10
2017-11-20T07:40:03.565Z,4.20
2017-11-20T07:42:29.860Z,4.20
2017-11-20T07:44:56.160Z,4.20
2017-11-20T07:47:23.168Z,4.20
2017-11-20T07:49:49.464Z,4.20
2017-11-20T07:52:15.752Z,4.20
2017-11-20T07:54:42.081Z,4.10
2017-11-20T07:57:08.393Z,4.20
2017-11-20T07:59:34.692Z,4.10
2017-11-20T08:02:00.988Z,4.00
2017-11-20T08:04:27.269Z,4.10
2017-11-20T08:06:53.588Z,4.20
2017-11-20T08:09:19.869Z,4.20
2017-11-20T08:11:46.161Z,4.20
2017-11-20T08:14:12.489Z,4.10
2017-11-20T08:16:39.508Z,4.10
2017-11-20T08:19:05.829Z,4.10
2017-11-20T08:21:32.143Z,4.10
2017-11-20T08:23:58.465Z,4.20
2017-11-20T08:26:25.488Z,4.10
2017-11-20T08:28:51.769Z,4.10
2017-11-20T08:31:18.808Z,4.20
2017-11-20T08:33:45.117Z,4.20
2017-11-20T08:36:11.468Z,4.20
2017-11-20T08:38:37.761Z,4.30
2017-11-20T08:41:04.036Z,4.40
2017-11-20T08:43:30.364Z,4.30
2017-11-20T08:45:56.717Z,4.40
2017-11-20T08:48:23.036Z,4.30
2017-11-20T08:50:49.396Z,4.30
2017-11-20T08:53:15.691Z,4.40
2017-11-20T08:55:42.000Z,4.30
2017-11-20T08:58:08.308Z,4.40
2017-11-20T09:00:34.657Z,4.40
2017-11-20T09:03:00.941Z,4.40
2017-11-20T09:05:28.030Z,4.40
2017-11-20T09:07:55.098Z,4.50
2017-11-20T09:10:21.392Z,4.40
2017-11-20T09:12:47.745Z,4.50
2017-11-20T09:15:14.065Z,4.50
2017-11-20T09:17:40.400Z,4.40
2017-11-20T09:20:06.745Z,4.40
2017-11-20T09:22:33.084Z,4.50
2017-11-20T09:24:59.405Z,4.50
2017-11-20T09:27:25.797Z,4.50
2017-11-20T09:29:52.124Z,4.50
2017-11-20T09:32:19.177Z,4.60
2017-11-20T09:34:45.536Z,4.60
2017-11-20T09:37:17.409Z,4.60
2017-11-20T09:39:43.735Z,4.60
2017-11-20T09:42:10.081Z,4.60
2017-11-20T09:44:36.372Z,4.60
2017-11-20T09:47:03.446Z,4.70
2017-11-20T09:49:29.812Z,4.70
2017-11-20T09:51:56.101Z,4.70
2017-11-20T09:54:22.445Z,4.70
2017-11-20T09:56:49.516Z,4.70
2017-11-20T09:59:16.549Z,4.70
2017-11-20T10:01:42.884Z,4.70
2017-11-20T10:04:09.252Z,4.80
2017-11-20T10:06:39.786Z,4.80
2017-11-20T10:09:06.105Z,4.80
2017-11-20T10:11:32.469Z,4.70
2017-11-20T10:13:58.774Z,4.70
2017-11-20T10:16:25.102Z,4.80
2017-11-20T10:18:51.448Z,4.90
2017-11-20T10:21:17.748Z,5.00
2017-11-20T10:23:44.088Z,5.00
2017-11-20T10:26:11.169Z,5.00
2017-11-20T10:28:38.270Z,5.00
2017-11-20T10:31:04.593Z,5.00
2017-11-20T10:33:30.917Z,5.10
2017-11-20T10:35:57.268Z,5.10
2017-11-20T10:38:23.601Z,5.10
2017-11-20T10:40:49.949Z,5.10
2017-11-20T10:43:16.248Z,5.20
2017-11-20T10:45:42.584Z,5.10
2017-11-20T10:48:08.928Z,5.20
2017-11-20T10:50:35.236Z,5.10
2017-11-20T10:53:01.553Z,5.10
2017-11-20T10:55:27.896Z,5.20
2017-11-20T10:57:54.237Z,5.10
2017-11-20T11:00:21.293Z,5.10
2017-11-20T11:02:47.665Z,5.10
2017-11-20T11:05:13.985Z,5.20
2017-11-20T11:07:41.049Z,5.20
2017-11-20T11:10:07.409Z,5.20
2017-11-20T11:12:33.724Z,5.20
2017-11-20T11:15:00.800Z,5.30
2017-11-20T11:17:27.160Z,5.30
2017-11-20T11:19:53.509Z,5.20
2017-11-20T11:22:19.837Z,5.20
